Time;durP1;ratioP1;P1;durP2;ratioP2;P2;SDS_P1;SDS_P2;PMS_P1;PMS_P2;Temp;Humidity;BMP_temperature;BMP_pressure;BME280_temperature;BME280_humidity;BME280_pressure;Samples;Min_cycle;Max_cycle;Signal;HPM_P1;HPM_P2
2023/06/19 00:00:23;;;;;;;15.35;8.05;;;;;;;;;;5089933;28;20054;-73
2023/06/19 00:02:48;;;;;;;14.82;8.00;;;;;;;;;;5087766;28;20027;-73
2023/06/19 00:05:14;;;;;;;10.50;7.88;;;;;;;;;;5083289;28;20703;-73
2023/06/19 00:07:39;;;;;;;11.65;8.45;;;;;;;;;;5072336;28;20029;-73
2023/06/19 00:10:05;;;;;;;11.48;7.80;;;;;;;;;;5073279;28;20116;-73
2023/06/19 00:12:31;;;;;;;9.65;7.95;;;;;;;;;;5073241;28;20036;-71
2023/06/19 00:14:56;;;;;;;11.43;8.48;;;;;;;;;;5073293;28;20025;-71
2023/06/19 00:17:22;;;;;;;12.32;8.85;;;;;;;;;;5084590;28;20036;-74
2023/06/19 00:19:48;;;;;;;10.32;7.47;;;;;;;;;;5078371;28;20043;-72
2023/06/19 00:22:14;;;;;;;13.63;9.20;;;;;;;;;;5078602;28;20060;-72
2023/06/19 00:24:39;;;;;;;11.15;8.65;;;;;;;;;;5073041;28;20059;-72
2023/06/19 00:27:05;;;;;;;12.55;8.73;;;;;;;;;;5072706;28;20021;-74
2023/06/19 00:29:31;;;;;;;10.65;8.48;;;;;;;;;;5077682;28;20026;-72
2023/06/19 00:31:57;;;;;;;11.00;8.35;;;;;;;;;;5081848;28;20058;-72
2023/06/19 00:34:24;;;;;;;10.25;8.15;;;;;;;;;;5073752;28;20083;-72
2023/06/19 00:36:50;;;;;;;14.25;9.35;;;;;;;;;;5079509;28;20047;-72
2023/06/19 00:39:15;;;;;;;12.00;9.57;;;;;;;;;;5074483;28;20028;-72
2023/06/19 00:41:42;;;;;;;14.35;10.25;;;;;;;;;;5071857;28;20024;-72
2023/06/19 00:44:08;;;;;;;14.30;10.43;;;;;;;;;;5081850;28;20555;-74
2023/06/19 00:46:37;;;;;;;17.33;10.90;;;;;;;;;;5081672;28;20033;-72
2023/06/19 00:49:03;;;;;;;17.65;11.90;;;;;;;;;;5081095;28;20112;-72
2023/06/19 00:51:28;;;;;;;15.30;10.63;;;;;;;;;;5076897;28;20572;-72
2023/06/19 00:53:53;;;;;;;16.30;10.88;;;;;;;;;;5079506;28;20070;-72
2023/06/19 00:56:19;;;;;;;14.88;10.57;;;;;;;;;;5067737;28;20028;-72
2023/06/19 00:58:44;;;;;;;13.30;10.05;;;;;;;;;;5078650;28;20060;-72
2023/06/19 01:01:10;;;;;;;12.18;9.45;;;;;;;;;;5068049;28;20036;-72
2023/06/19 01:03:36;;;;;;;13.57;9.32;;;;;;;;;;5080295;28;20039;-72
2023/06/19 01:06:05;;;;;;;13.88;9.77;;;;;;;;;;5080939;28;20028;-72
2023/06/19 01:08:43;;;;;;;11.77;7.82;;;;;;;;;;5063736;28;20045;-72
2023/06/19 01:11:11;;;;;;;11.88;8.52;;;;;;;;;;5089277;28;20032;-72
2023/06/19 01:13:50;;;;;;;13.57;8.82;;;;;;;;;;5070377;28;20033;-72
2023/06/19 01:16:16;;;;;;;13.52;9.02;;;;;;;;;;5079728;28;20122;-73
2023/06/19 01:18:42;;;;;;;12.27;9.32;;;;;;;;;;5086613;28;20032;-72
2023/06/19 01:21:18;;;;;;;13.70;9.02;;;;;;;;;;5080215;28;20020;-72
2023/06/19 01:23:44;;;;;;;20.02;8.80;;;;;;;;;;5080807;28;20032;-72
2023/06/19 01:26:10;;;;;;;11.98;9.00;;;;;;;;;;5070583;28;20044;-71
2023/06/19 01:28:39;;;;;;;9.27;8.07;;;;;;;;;;5062732;28;20115;-72
2023/06/19 01:31:25;;;;;;;10.20;7.60;;;;;;;;;;5087906;28;20437;-72
2023/06/19 01:33:52;;;;;;;11.70;8.52;;;;;;;;;;5087427;28;20132;-72
2023/06/19 01:36:19;;;;;;;12.18;8.65;;;;;;;;;;5078199;28;20060;-72
2023/06/19 01:38:47;;;;;;;11.82;8.43;;;;;;;;;;5081396;28;20020;-72
2023/06/19 01:41:15;;;;;;;10.07;8.40;;;;;;;;;;5082052;28;20035;-72
2023/06/19 01:43:40;;;;;;;12.43;8.80;;;;;;;;;;5062490;28;20060;-72
2023/06/19 01:46:05;;;;;;;14.77;8.90;;;;;;;;;;5079403;28;20415;-72
2023/06/19 01:48:31;;;;;;;11.70;8.68;;;;;;;;;;5083360;28;20038;-72
2023/06/19 01:50:56;;;;;;;15.48;9.18;;;;;;;;;;5084745;28;20024;-72
2023/06/19 01:53:22;;;;;;;11.45;8.77;;;;;;;;;;5066179;28;20055;-72
2023/06/19 01:55:47;;;;;;;12.40;9.05;;;;;;;;;;5081878;28;20116;-72
2023/06/19 01:58:12;;;;;;;13.40;8.82;;;;;;;;;;5088463;28;20032;-72
2023/06/19 02:00:38;;;;;;;10.90;9.38;;;;;;;;;;5068275;28;20175;-72
2023/06/19 02:03:06;;;;;;;13.10;9.30;;;;;;;;;;5082704;28;20028;-74
2023/06/19 02:05:31;;;;;;;13.07;9.23;;;;;;;;;;5082998;28;20050;-72
2023/06/19 02:07:57;;;;;;;12.48;9.02;;;;;;;;;;5078968;28;20040;-72
2023/06/19 02:10:22;;;;;;;13.20;9.45;;;;;;;;;;5073588;28;20113;-72
2023/06/19 02:12:48;;;;;;;11.07;8.85;;;;;;;;;;5067867;28;20060;-72
2023/06/19 02:15:13;;;;;;;11.80;8.93;;;;;;;;;;5075946;28;20028;-72
2023/06/19 02:17:38;;;;;;;14.25;9.60;;;;;;;;;;5070053;28;20458;-72
2023/06/19 02:20:08;;;;;;;11.68;8.75;;;;;;;;;;5084980;28;20039;-72
2023/06/19 02:22:34;;;;;;;17.52;9.32;;;;;;;;;;5087507;28;20033;-73
2023/06/19 02:25:00;;;;;;;10.65;8.55;;;;;;;;;;5070690;28;20095;-73
2023/06/19 02:27:25;;;;;;;10.48;7.65;;;;;;;;;;5069061;28;20090;-72
2023/06/19 02:29:50;;;;;;;11.43;7.78;;;;;;;;;;5083093;28;20028;-72
2023/06/19 02:32:15;;;;;;;14.68;9.02;;;;;;;;;;5062560;28;20025;-72
2023/06/19 02:34:41;;;;;;;11.25;8.38;;;;;;;;;;5063331;28;20423;-72
2023/06/19 02:37:08;;;;;;;12.95;8.73;;;;;;;;;;5077238;28;20133;-72
2023/06/19 02:39:33;;;;;;;11.57;9.30;;;;;;;;;;5089784;28;20169;-72
2023/06/19 02:41:59;;;;;;;11.63;9.18;;;;;;;;;;5074963;28;20052;-72
2023/06/19 02:44:24;;;;;;;11.45;8.50;;;;;;;;;;5080896;28;20032;-72
2023/06/19 02:46:49;;;;;;;10.82;8.55;;;;;;;;;;5076912;28;20479;-72
2023/06/19 02:49:15;;;;;;;11.30;8.75;;;;;;;;;;5077667;28;20028;-72
2023/06/19 02:51:40;;;;;;;11.13;8.00;;;;;;;;;;5067904;28;20029;-73
2023/06/19 02:54:06;;;;;;;10.57;8.13;;;;;;;;;;5058468;28;20017;-72
2023/06/19 02:56:31;;;;;;;10.38;8.27;;;;;;;;;;5055038;28;20036;-72
2023/06/19 02:58:57;;;;;;;12.90;8.13;;;;;;;;;;5070302;28;20036;-72
2023/06/19 03:01:22;;;;;;;12.52;8.05;;;;;;;;;;5072119;28;20075;-72
2023/06/19 03:03:47;;;;;;;14.25;8.20;;;;;;;;;;5068282;28;20036;-72
2023/06/19 03:06:13;;;;;;;10.10;8.18;;;;;;;;;;5078549;28;20027;-72
2023/06/19 03:08:39;;;;;;;14.57;8.02;;;;;;;;;;5082694;28;20052;-72
2023/06/19 03:11:05;;;;;;;12.23;8.15;;;;;;;;;;5073603;28;20051;-73
2023/06/19 03:13:53;;;;;;;9.25;7.75;;;;;;;;;;5078468;28;20494;-72
2023/06/19 03:16:20;;;;;;;11.30;7.65;;;;;;;;;;5073584;28;20473;-72
2023/06/19 03:18:45;;;;;;;11.52;7.65;;;;;;;;;;5075861;28;20067;-73
2023/06/19 03:21:14;;;;;;;9.82;6.95;;;;;;;;;;5089538;28;20055;-73
2023/06/19 03:23:43;;;;;;;8.52;6.60;;;;;;;;;;5066472;28;20030;-72
2023/06/19 03:26:10;;;;;;;7.65;5.90;;;;;;;;;;5082504;28;20115;-73
2023/06/19 03:28:35;;;;;;;10.45;6.10;;;;;;;;;;5078390;28;20039;-72
2023/06/19 03:31:01;;;;;;;10.90;6.47;;;;;;;;;;5080148;28;20037;-72
2023/06/19 03:33:26;;;;;;;10.07;6.47;;;;;;;;;;5076225;28;20111;-72
2023/06/19 03:35:51;;;;;;;7.68;5.65;;;;;;;;;;5080981;28;20032;-72
2023/06/19 03:38:17;;;;;;;6.28;5.60;;;;;;;;;;5074297;28;20060;-72
2023/06/19 03:40:42;;;;;;;6.78;5.80;;;;;;;;;;5086407;28;20032;-72
2023/06/19 03:43:07;;;;;;;14.77;5.45;;;;;;;;;;5094349;28;20183;-72
2023/06/19 03:45:32;;;;;;;11.30;6.07;;;;;;;;;;5079835;28;20036;-72
2023/06/19 03:47:59;;;;;;;11.48;6.22;;;;;;;;;;5074466;28;20036;-72
2023/06/19 03:50:24;;;;;;;7.85;6.63;;;;;;;;;;5082473;28;20028;-72
2023/06/19 03:52:49;;;;;;;9.57;5.93;;;;;;;;;;5087654;28;20356;-72
2023/06/19 03:55:15;;;;;;;9.25;5.97;;;;;;;;;;5094130;28;20056;-72
2023/06/19 03:57:40;;;;;;;7.50;5.95;;;;;;;;;;5075857;28;20522;-72
2023/06/19 04:00:10;;;;;;;8.35;5.65;;;;;;;;;;5086003;28;20024;-72
2023/06/19 04:02:36;;;;;;;9.13;6.65;;;;;;;;;;5074599;28;20016;-72
2023/06/19 04:05:02;;;;;;;9.20;5.65;;;;;;;;;;5080646;28;20459;-72
2023/06/19 04:07:28;;;;;;;7.97;6.10;;;;;;;;;;5092481;28;20048;-72
2023/06/19 04:09:53;;;;;;;11.10;6.40;;;;;;;;;;5073795;28;20032;-72
2023/06/19 04:12:19;;;;;;;9.43;6.53;;;;;;;;;;5079561;28;20032;-73
2023/06/19 04:14:44;;;;;;;7.50;5.72;;;;;;;;;;5081559;28;20020;-72
2023/06/19 04:17:09;;;;;;;7.70;5.40;;;;;;;;;;5072337;28;20047;-72
2023/06/19 04:19:34;;;;;;;8.20;5.32;;;;;;;;;;5076269;28;20549;-73
2023/06/19 04:22:00;;;;;;;9.20;5.70;;;;;;;;;;5092560;28;20028;-72
2023/06/19 04:24:25;;;;;;;6.28;5.43;;;;;;;;;;5082699;28;20020;-72
2023/06/19 04:26:51;;;;;;;8.27;5.53;;;;;;;;;;5066126;28;20049;-72
2023/06/19 04:29:17;;;;;;;8.40;6.07;;;;;;;;;;5093662;28;20027;-72
2023/06/19 04:31:48;;;;;;;7.32;5.20;;;;;;;;;;5077078;28;20066;-72
2023/06/19 04:34:20;;;;;;;6.55;5.75;;;;;;;;;;5075957;28;20032;-72
2023/06/19 04:36:46;;;;;;;5.82;5.22;;;;;;;;;;5069601;28;20437;-72
2023/06/19 04:39:12;;;;;;;8.65;5.28;;;;;;;;;;5079670;28;20100;-72
2023/06/19 04:41:38;;;;;;;6.07;5.35;;;;;;;;;;5071960;28;20112;-72
2023/06/19 04:44:04;;;;;;;7.80;4.93;;;;;;;;;;5073097;28;20040;-72
2023/06/19 04:46:30;;;;;;;6.43;5.00;;;;;;;;;;5081513;28;20033;-72
2023/06/19 04:48:55;;;;;;;5.78;5.05;;;;;;;;;;5078297;28;20538;-72
2023/06/19 04:51:21;;;;;;;9.98;5.30;;;;;;;;;;5093275;28;20020;-72
2023/06/19 04:53:47;;;;;;;6.55;5.25;;;;;;;;;;5083795;28;20055;-73
2023/06/19 04:56:12;;;;;;;6.07;4.93;;;;;;;;;;5072710;28;20502;-72
2023/06/19 04:58:45;;;;;;;9.07;4.75;;;;;;;;;;5066208;28;20527;-72
2023/06/19 05:01:11;;;;;;;7.10;5.15;;;;;;;;;;5052830;28;20568;-72
2023/06/19 05:03:36;;;;;;;6.00;5.32;;;;;;;;;;5071552;28;20082;-72
2023/06/19 05:06:01;;;;;;;11.52;5.25;;;;;;;;;;5078823;28;20031;-72
2023/06/19 05:08:27;;;;;;;6.47;4.90;;;;;;;;;;5073206;28;20060;-72
2023/06/19 05:10:53;;;;;;;5.72;4.97;;;;;;;;;;5077107;28;20439;-72
2023/06/19 05:13:19;;;;;;;8.23;4.82;;;;;;;;;;5083974;28;20035;-72
2023/06/19 05:15:44;;;;;;;7.15;5.50;;;;;;;;;;5071983;28;20115;-73
2023/06/19 05:18:09;;;;;;;6.05;5.15;;;;;;;;;;5073650;28;20035;-73
2023/06/19 05:20:35;;;;;;;9.95;5.18;;;;;;;;;;5081977;28;20048;-73
2023/06/19 05:23:00;;;;;;;8.50;5.38;;;;;;;;;;5064806;28;20033;-73
2023/06/19 05:25:25;;;;;;;6.90;5.32;;;;;;;;;;5066249;28;20120;-73
2023/06/19 05:27:50;;;;;;;6.60;5.50;;;;;;;;;;5070970;28;20445;-73
2023/06/19 05:30:16;;;;;;;5.80;5.30;;;;;;;;;;5075938;28;20020;-73
2023/06/19 05:32:41;;;;;;;12.48;5.40;;;;;;;;;;5081437;28;20036;-73
2023/06/19 05:35:07;;;;;;;10.63;5.22;;;;;;;;;;5070592;28;20036;-73
2023/06/19 05:37:32;;;;;;;8.35;5.22;;;;;;;;;;5069186;28;20423;-73
2023/06/19 05:39:59;;;;;;;10.02;5.28;;;;;;;;;;5075222;28;20037;-73
2023/06/19 05:42:24;;;;;;;6.35;5.15;;;;;;;;;;5076951;28;20104;-73
2023/06/19 05:44:49;;;;;;;8.57;5.43;;;;;;;;;;5077944;28;20479;-73
2023/06/19 05:47:16;;;;;;;7.47;5.32;;;;;;;;;;5063152;28;20036;-73
2023/06/19 05:49:42;;;;;;;9.13;5.35;;;;;;;;;;5061065;28;20144;-73
2023/06/19 05:52:08;;;;;;;6.93;5.30;;;;;;;;;;5051228;28;20131;-73
2023/06/19 05:54:33;;;;;;;12.63;5.68;;;;;;;;;;5059790;28;20037;-73
2023/06/19 05:56:58;;;;;;;6.45;5.30;;;;;;;;;;5071149;28;20528;-73
2023/06/19 05:59:23;;;;;;;16.77;6.00;;;;;;;;;;5063839;28;20035;-73
2023/06/19 06:01:50;;;;;;;8.45;5.38;;;;;;;;;;5062158;28;20032;-73
2023/06/19 06:04:15;;;;;;;6.00;5.22;;;;;;;;;;5060758;28;20036;-73
2023/06/19 06:06:41;;;;;;;5.85;5.25;;;;;;;;;;5056391;28;20067;-73
2023/06/19 06:09:09;;;;;;;8.27;5.07;;;;;;;;;;5085705;28;20077;-73
2023/06/19 06:11:34;;;;;;;5.88;5.00;;;;;;;;;;5073076;28;20024;-73
2023/06/19 06:14:00;;;;;;;6.70;5.05;;;;;;;;;;5079376;28;20107;-73
2023/06/19 06:16:25;;;;;;;6.38;5.38;;;;;;;;;;5076747;28;20040;-73
2023/06/19 06:18:50;;;;;;;5.95;4.93;;;;;;;;;;5073220;28;20093;-73
2023/06/19 06:21:16;;;;;;;5.95;5.35;;;;;;;;;;5057621;28;20044;-73
2023/06/19 06:23:41;;;;;;;5.60;5.10;;;;;;;;;;5067786;28;20033;-73
2023/06/19 06:26:06;;;;;;;8.63;5.40;;;;;;;;;;5059354;28;20033;-73
2023/06/19 06:28:32;;;;;;;7.43;5.80;;;;;;;;;;5053598;28;20057;-73
2023/06/19 06:30:57;;;;;;;6.72;5.40;;;;;;;;;;5059563;28;20037;-73
2023/06/19 06:33:23;;;;;;;6.07;5.47;;;;;;;;;;5058760;28;20045;-74
2023/06/19 06:35:48;;;;;;;6.60;4.93;;;;;;;;;;5060683;28;20040;-73
2023/06/19 06:38:13;;;;;;;8.30;4.95;;;;;;;;;;5061673;28;20581;-75
2023/06/19 06:40:46;;;;;;;6.10;4.90;;;;;;;;;;5054022;28;20032;-73
2023/06/19 06:43:11;;;;;;;5.70;4.97;;;;;;;;;;5056189;28;20033;-73
2023/06/19 06:45:38;;;;;;;11.32;5.88;;;;;;;;;;5064959;28;20037;-73
2023/06/19 06:48:05;;;;;;;10.93;4.93;;;;;;;;;;5068404;28;20475;-73
2023/06/19 06:50:32;;;;;;;8.23;5.38;;;;;;;;;;5062338;28;20479;-73
2023/06/19 06:52:57;;;;;;;8.63;5.20;;;;;;;;;;5053746;28;20040;-73
2023/06/19 06:55:22;;;;;;;4.93;4.47;;;;;;;;;;5063677;28;20376;-73
2023/06/19 06:57:47;;;;;;;5.45;4.85;;;;;;;;;;5064915;28;20028;-73
2023/06/19 07:00:13;;;;;;;7.53;5.25;;;;;;;;;;5059689;28;20383;-73
2023/06/19 07:02:40;;;;;;;5.32;4.50;;;;;;;;;;5063613;28;20039;-73
2023/06/19 07:05:06;;;;;;;5.88;4.32;;;;;;;;;;5060313;28;20047;-73
2023/06/19 07:07:32;;;;;;;8.52;4.72;;;;;;;;;;5053997;28;20072;-73
2023/06/19 07:09:57;;;;;;;7.53;4.70;;;;;;;;;;5053038;28;20520;-72
2023/06/19 07:12:22;;;;;;;13.30;4.72;;;;;;;;;;5053429;28;20106;-73
2023/06/19 07:14:48;;;;;;;10.23;5.25;;;;;;;;;;5062436;28;20121;-73
2023/06/19 07:17:13;;;;;;;10.77;5.28;;;;;;;;;;5068483;28;20025;-73
2023/06/19 07:19:38;;;;;;;7.22;5.10;;;;;;;;;;5064033;28;20485;-73
2023/06/19 07:22:04;;;;;;;11.60;4.70;;;;;;;;;;5061722;28;20044;-73
2023/06/19 07:24:29;;;;;;;5.18;4.40;;;;;;;;;;5049487;28;20116;-73
2023/06/19 07:26:55;;;;;;;5.70;4.50;;;;;;;;;;5067516;28;20028;-73
2023/06/19 07:29:21;;;;;;;7.55;4.70;;;;;;;;;;5069585;28;20025;-73
2023/06/19 07:31:46;;;;;;;5.35;4.85;;;;;;;;;;5053952;28;20036;-73
2023/06/19 07:34:13;;;;;;;6.07;4.47;;;;;;;;;;5066036;28;20419;-73
2023/06/19 07:36:38;;;;;;;5.15;4.63;;;;;;;;;;5066811;28;20036;-73
2023/06/19 07:39:04;;;;;;;6.72;4.60;;;;;;;;;;5064126;28;20391;-73
2023/06/19 07:41:29;;;;;;;5.63;4.45;;;;;;;;;;5066697;28;20491;-73
2023/06/19 07:43:54;;;;;;;6.35;4.72;;;;;;;;;;5059327;28;20120;-73
2023/06/19 07:46:20;;;;;;;6.45;4.70;;;;;;;;;;5054050;28;20033;-74
2023/06/19 07:48:45;;;;;;;9.13;4.55;;;;;;;;;;5048930;28;20037;-74
2023/06/19 07:51:10;;;;;;;5.15;4.65;;;;;;;;;;5065838;28;20550;-73
2023/06/19 07:53:36;;;;;;;11.93;5.38;;;;;;;;;;5059791;28;20024;-73
2023/06/19 07:56:01;;;;;;;5.75;4.40;;;;;;;;;;5062456;28;20038;-73
2023/06/19 07:58:26;;;;;;;4.68;4.10;;;;;;;;;;5060872;28;20064;-73
2023/06/19 08:00:52;;;;;;;3.95;3.65;;;;;;;;;;5062785;28;20043;-73
2023/06/19 08:03:17;;;;;;;3.92;3.53;;;;;;;;;;5071827;28;20374;-73
2023/06/19 08:05:42;;;;;;;4.95;3.63;;;;;;;;;;5067909;28;20085;-73
2023/06/19 08:08:08;;;;;;;6.55;3.83;;;;;;;;;;5061295;28;20064;-73
2023/06/19 08:10:33;;;;;;;5.22;4.25;;;;;;;;;;5064257;28;20543;-73
2023/06/19 08:12:58;;;;;;;4.47;4.05;;;;;;;;;;5056008;28;20052;-73
2023/06/19 08:15:24;;;;;;;4.18;3.78;;;;;;;;;;5059328;28;20396;-73
2023/06/19 08:17:49;;;;;;;5.78;4.40;;;;;;;;;;5065273;28;20025;-73
2023/06/19 08:20:15;;;;;;;5.25;4.35;;;;;;;;;;5066968;28;20033;-73
2023/06/19 08:22:40;;;;;;;4.82;4.10;;;;;;;;;;5061894;28;20047;-73
2023/06/19 08:25:06;;;;;;;4.88;4.38;;;;;;;;;;5062509;28;20503;-73
2023/06/19 08:27:31;;;;;;;6.97;4.35;;;;;;;;;;5062204;28;20116;-72
2023/06/19 08:29:56;;;;;;;5.13;4.55;;;;;;;;;;5061035;28;20024;-72
2023/06/19 08:32:22;;;;;;;4.90;4.20;;;;;;;;;;5067884;28;20191;-72
2023/06/19 08:34:47;;;;;;;6.22;4.38;;;;;;;;;;5062689;28;20033;-72
2023/06/19 08:37:12;;;;;;;4.50;3.67;;;;;;;;;;5064534;28;20044;-72
2023/06/19 08:39:39;;;;;;;3.47;3.17;;;;;;;;;;5064841;28;20041;-72
2023/06/19 08:42:08;;;;;;;3.65;3.35;;;;;;;;;;5064476;28;20376;-72
2023/06/19 08:44:37;;;;;;;4.00;3.70;;;;;;;;;;5063048;28;20042;-72
2023/06/19 08:47:03;;;;;;;3.88;3.50;;;;;;;;;;5069948;28;20025;-73
2023/06/19 08:49:34;;;;;;;6.93;3.70;;;;;;;;;;5059900;28;20035;-73
2023/06/19 08:52:00;;;;;;;3.85;3.53;;;;;;;;;;5064974;28;20449;-72
2023/06/19 08:54:26;;;;;;;4.78;3.30;;;;;;;;;;5063842;28;20056;-73
2023/06/19 08:56:54;;;;;;;4.50;3.38;;;;;;;;;;5060764;28;20513;-73
2023/06/19 08:59:20;;;;;;;3.67;3.38;;;;;;;;;;5057732;28;20037;-73
2023/06/19 09:01:53;;;;;;;3.75;3.45;;;;;;;;;;5051119;28;20052;-73
2023/06/19 09:04:24;;;;;;;3.38;3.08;;;;;;;;;;5060955;28;20039;-73
2023/06/19 09:06:50;;;;;;;4.00;3.08;;;;;;;;;;5061385;28;20046;-73
2023/06/19 09:09:16;;;;;;;3.28;2.88;;;;;;;;;;5057062;28;20035;-73
2023/06/19 09:11:45;;;;;;;8.07;3.40;;;;;;;;;;5051246;28;20029;-74
2023/06/19 09:14:11;;;;;;;3.53;3.22;;;;;;;;;;5052398;28;20392;-74
2023/06/19 09:16:40;;;;;;;3.55;3.20;;;;;;;;;;5059289;28;20039;-73
2023/06/19 09:19:06;;;;;;;4.45;3.20;;;;;;;;;;5066693;28;20037;-73
2023/06/19 09:21:32;;;;;;;3.50;3.20;;;;;;;;;;5065500;28;20043;-73
2023/06/19 09:24:05;;;;;;;5.68;3.08;;;;;;;;;;5059918;28;20032;-74
2023/06/19 09:26:30;;;;;;;6.95;3.38;;;;;;;;;;5068083;28;20040;-74
2023/06/19 09:28:55;;;;;;;3.78;3.25;;;;;;;;;;5056056;28;20028;-73
2023/06/19 09:31:30;;;;;;;3.00;2.80;;;;;;;;;;5053163;28;20090;-73
2023/06/19 09:33:56;;;;;;;3.28;2.90;;;;;;;;;;5056731;28;20699;-73
2023/06/19 09:36:21;;;;;;;3.30;2.88;;;;;;;;;;5072759;28;20048;-73
2023/06/19 09:38:48;;;;;;;3.25;2.95;;;;;;;;;;5069070;28;20039;-73
2023/06/19 09:41:15;;;;;;;3.00;2.80;;;;;;;;;;5061368;28;20055;-73
2023/06/19 09:43:43;;;;;;;6.90;3.22;;;;;;;;;;5058177;28;20206;-73
2023/06/19 09:46:10;;;;;;;3.47;3.17;;;;;;;;;;5060461;28;20406;-73
2023/06/19 09:48:41;;;;;;;4.20;3.10;;;;;;;;;;5059797;28;20033;-74
2023/06/19 09:51:25;;;;;;;3.65;3.00;;;;;;;;;;5063791;28;20028;-75
2023/06/19 09:53:51;;;;;;;5.65;3.28;;;;;;;;;;5053129;28;20027;-76
2023/06/19 09:56:21;;;;;;;4.35;3.08;;;;;;;;;;5055265;28;20407;-75
2023/06/19 09:58:49;;;;;;;3.70;2.90;;;;;;;;;;5058207;28;20048;-75
2023/06/19 10:01:18;;;;;;;3.70;3.22;;;;;;;;;;5053886;28;20037;-75
2023/06/19 10:03:44;;;;;;;4.70;3.00;;;;;;;;;;5051684;28;21739;-75
2023/06/19 10:06:14;;;;;;;5.07;3.35;;;;;;;;;;5054334;28;20035;-75
2023/06/19 10:08:42;;;;;;;3.95;3.33;;;;;;;;;;5056266;28;20100;-76
2023/06/19 10:11:07;;;;;;;3.50;3.30;;;;;;;;;;5064847;28;20036;-76
2023/06/19 10:13:40;;;;;;;3.10;2.90;;;;;;;;;;5084835;28;20509;-76
2023/06/19 10:16:06;;;;;;;3.55;3.13;;;;;;;;;;5061314;28;20517;-76
2023/06/19 10:18:43;;;;;;;2.95;2.75;;;;;;;;;;5078349;28;20050;-76
2023/06/19 10:21:18;;;;;;;3.25;3.05;;;;;;;;;;5060708;28;20020;-76
2023/06/19 10:23:53;;;;;;;3.35;3.10;;;;;;;;;;5081433;28;20093;-76
2023/06/19 10:26:21;;;;;;;3.58;3.28;;;;;;;;;;5085944;28;20029;-76
2023/06/19 10:28:48;;;;;;;3.58;3.28;;;;;;;;;;5079519;28;20036;-76
2023/06/19 10:31:13;;;;;;;3.50;3.20;;;;;;;;;;5077450;28;20029;-76
2023/06/19 10:33:40;;;;;;;3.63;3.33;;;;;;;;;;5074626;28;20127;-76
2023/06/19 10:36:18;;;;;;;4.28;3.20;;;;;;;;;;5069567;28;20384;-75
2023/06/19 10:38:47;;;;;;;13.43;3.33;;;;;;;;;;5084327;28;20053;-75
2023/06/19 10:41:20;;;;;;;9.27;3.45;;;;;;;;;;5061704;28;20028;-76
2023/06/19 10:44:00;;;;;;;4.05;3.33;;;;;;;;;;5064185;28;20063;-75
2023/06/19 10:46:30;;;;;;;3.85;3.10;;;;;;;;;;5071081;28;20044;-75
2023/06/19 10:49:00;;;;;;;3.13;2.83;;;;;;;;;;5073741;28;20043;-75
2023/06/19 10:51:26;;;;;;;3.60;3.25;;;;;;;;;;5063863;28;20112;-75
2023/06/19 10:53:55;;;;;;;5.03;3.13;;;;;;;;;;5072120;28;20169;-75
2023/06/19 10:56:21;;;;;;;12.30;3.47;;;;;;;;;;5062799;28;20135;-75
2023/06/19 10:58:46;;;;;;;7.70;3.72;;;;;;;;;;5086466;28;20455;-75
2023/06/19 11:01:11;;;;;;;6.35;3.38;;;;;;;;;;5073000;28;20111;-75
2023/06/19 11:03:37;;;;;;;5.60;3.33;;;;;;;;;;5086335;28;20024;-75
2023/06/19 11:06:02;;;;;;;3.22;2.92;;;;;;;;;;5079148;28;20066;-75
2023/06/19 11:08:28;;;;;;;7.13;3.85;;;;;;;;;;5081392;28;20107;-77
2023/06/19 11:10:55;;;;;;;3.88;2.95;;;;;;;;;;5082051;28;20071;-77
2023/06/19 11:13:20;;;;;;;3.38;3.00;;;;;;;;;;5069858;28;20494;-77
2023/06/19 11:15:51;;;;;;;5.43;3.60;;;;;;;;;;5077567;28;20051;-77
2023/06/19 11:18:17;;;;;;;3.70;3.40;;;;;;;;;;5064287;28;20083;-75
2023/06/19 11:20:51;;;;;;;3.97;3.38;;;;;;;;;;5071319;28;20028;-75
2023/06/19 11:23:30;;;;;;;3.80;3.40;;;;;;;;;;5080586;28;20526;-75
2023/06/19 11:26:03;;;;;;;3.58;3.28;;;;;;;;;;5078854;28;20056;-75
2023/06/19 11:28:29;;;;;;;8.07;3.50;;;;;;;;;;5083640;28;20029;-75
2023/06/19 11:31:01;;;;;;;5.15;3.60;;;;;;;;;;5056047;28;20650;-75
2023/06/19 11:33:27;;;;;;;3.78;3.47;;;;;;;;;;5065171;28;20036;-75
2023/06/19 11:35:53;;;;;;;3.85;3.47;;;;;;;;;;5062018;28;20051;-75
2023/06/19 11:38:21;;;;;;;4.70;4.20;;;;;;;;;;5063431;28;20025;-75
2023/06/19 11:40:46;;;;;;;8.80;3.30;;;;;;;;;;5062737;28;20412;-75
2023/06/19 11:43:12;;;;;;;3.42;3.10;;;;;;;;;;5062449;28;20028;-75
2023/06/19 11:45:48;;;;;;;4.85;3.88;;;;;;;;;;5072013;28;20039;-75
2023/06/19 11:48:13;;;;;;;4.20;3.75;;;;;;;;;;5059586;28;20092;-75
2023/06/19 11:50:39;;;;;;;3.75;3.30;;;;;;;;;;5059546;28;20427;-75
2023/06/19 11:53:04;;;;;;;11.52;4.07;;;;;;;;;;5061538;28;20040;-75
2023/06/19 11:55:29;;;;;;;4.93;3.65;;;;;;;;;;5059316;28;20041;-75
2023/06/19 11:57:54;;;;;;;3.70;3.50;;;;;;;;;;5060284;28;20692;-75
2023/06/19 12:00:20;;;;;;;5.07;3.50;;;;;;;;;;5066206;28;20278;-75
2023/06/19 12:02:47;;;;;;;4.40;3.45;;;;;;;;;;5067907;28;20449;-75
2023/06/19 12:05:12;;;;;;;4.38;3.22;;;;;;;;;;5061726;28;20049;-77
2023/06/19 12:07:38;;;;;;;5.60;3.00;;;;;;;;;;5069588;28;20139;-77
2023/06/19 12:10:04;;;;;;;3.55;3.25;;;;;;;;;;5069539;28;20131;-75
2023/06/19 12:12:30;;;;;;;4.05;3.70;;;;;;;;;;5068829;28;20094;-77
2023/06/19 12:14:56;;;;;;;3.85;3.55;;;;;;;;;;5075285;28;20076;-77
2023/06/19 12:17:22;;;;;;;4.82;3.28;;;;;;;;;;5068293;28;20032;-77
2023/06/19 12:19:48;;;;;;;3.92;3.50;;;;;;;;;;5070640;28;20029;-77
2023/06/19 12:22:13;;;;;;;4.22;3.60;;;;;;;;;;5064849;28;20891;-77
2023/06/19 12:24:39;;;;;;;3.85;3.28;;;;;;;;;;5057976;28;20040;-77
2023/06/19 12:27:05;;;;;;;3.20;3.00;;;;;;;;;;5059078;28;20133;-77
2023/06/19 12:29:30;;;;;;;4.20;3.20;;;;;;;;;;5057426;28;20036;-77
2023/06/19 12:32:05;;;;;;;3.80;3.40;;;;;;;;;;5054678;28;20124;-75
2023/06/19 12:34:30;;;;;;;5.20;3.53;;;;;;;;;;5062321;28;20387;-77
2023/06/19 12:36:57;;;;;;;4.35;3.38;;;;;;;;;;5062111;28;20040;-77
2023/06/19 12:39:22;;;;;;;3.78;3.47;;;;;;;;;;5054189;28;20111;-77
2023/06/19 12:41:48;;;;;;;3.83;3.50;;;;;;;;;;5063259;28;20016;-77
2023/06/19 12:44:13;;;;;;;4.43;3.42;;;;;;;;;;5059278;28;20116;-77
2023/06/19 12:46:39;;;;;;;6.80;3.30;;;;;;;;;;5061658;28;20037;-76
2023/06/19 12:49:04;;;;;;;3.47;3.28;;;;;;;;;;5067954;28;20270;-77
2023/06/19 12:51:30;;;;;;;3.42;3.10;;;;;;;;;;5063732;28;20056;-77
2023/06/19 12:53:55;;;;;;;4.40;3.78;;;;;;;;;;5056654;28;20654;-77
2023/06/19 12:56:20;;;;;;;6.18;3.50;;;;;;;;;;5064363;28;20415;-77
2023/06/19 12:58:45;;;;;;;4.80;3.97;;;;;;;;;;5053436;28;20419;-77
2023/06/19 13:01:11;;;;;;;4.03;3.63;;;;;;;;;;5063714;28;20052;-77
2023/06/19 13:03:36;;;;;;;6.53;3.50;;;;;;;;;;5080286;28;20025;-77
2023/06/19 13:06:01;;;;;;;4.15;3.60;;;;;;;;;;5065228;28;20028;-77
2023/06/19 13:08:27;;;;;;;4.18;3.78;;;;;;;;;;5069144;28;20067;-77
2023/06/19 13:10:52;;;;;;;8.27;3.95;;;;;;;;;;5080934;28;20033;-77
2023/06/19 13:13:17;;;;;;;6.15;4.05;;;;;;;;;;5068523;28;20082;-77
2023/06/19 13:15:42;;;;;;;4.22;3.85;;;;;;;;;;5066549;28;20055;-77
2023/06/19 13:18:08;;;;;;;4.82;4.03;;;;;;;;;;5068818;28;20028;-77
2023/06/19 13:20:33;;;;;;;4.03;3.67;;;;;;;;;;5058604;28;20024;-77
2023/06/19 13:22:58;;;;;;;4.20;3.80;;;;;;;;;;5079642;28;20033;-77
2023/06/19 13:25:24;;;;;;;3.95;3.65;;;;;;;;;;5092293;28;20110;-75
2023/06/19 13:27:49;;;;;;;4.60;3.75;;;;;;;;;;5077626;28;20102;-77
2023/06/19 13:30:16;;;;;;;4.07;3.78;;;;;;;;;;5083765;28;20490;-77
2023/06/19 13:32:41;;;;;;;6.03;3.97;;;;;;;;;;5080847;28;20410;-77
2023/06/19 13:35:07;;;;;;;11.73;3.92;;;;;;;;;;5074282;28;20116;-77
2023/06/19 13:37:38;;;;;;;4.20;3.80;;;;;;;;;;5080112;28;20033;-77
2023/06/19 13:40:04;;;;;;;6.03;3.80;;;;;;;;;;5078853;28;20048;-77
2023/06/19 13:42:30;;;;;;;4.20;3.35;;;;;;;;;;5064328;28;20040;-77
2023/06/19 13:44:55;;;;;;;7.00;3.92;;;;;;;;;;5071666;28;20032;-77
2023/06/19 13:47:21;;;;;;;4.13;3.72;;;;;;;;;;5078127;28;20048;-77
2023/06/19 13:49:46;;;;;;;5.07;3.20;;;;;;;;;;5065849;28;20041;-77
2023/06/19 13:52:11;;;;;;;4.05;3.65;;;;;;;;;;5090756;28;20111;-78
2023/06/19 13:54:37;;;;;;;3.67;3.38;;;;;;;;;;5079666;28;20043;-77
2023/06/19 13:57:03;;;;;;;4.80;3.55;;;;;;;;;;5061148;28;20044;-77
2023/06/19 13:59:29;;;;;;;4.47;3.40;;;;;;;;;;5061011;28;20476;-77
2023/06/19 14:01:54;;;;;;;4.38;3.50;;;;;;;;;;5061323;28;20111;-77
2023/06/19 14:04:19;;;;;;;3.78;3.47;;;;;;;;;;5074829;28;20150;-78
2023/06/19 14:06:44;;;;;;;4.40;4.03;;;;;;;;;;5074884;28;20036;-75
2023/06/19 14:09:10;;;;;;;4.85;3.78;;;;;;;;;;5081739;28;20094;-75
2023/06/19 14:11:35;;;;;;;3.80;3.50;;;;;;;;;;5076887;28;20025;-75
2023/06/19 14:14:01;;;;;;;4.70;3.88;;;;;;;;;;5079949;28;20037;-76
2023/06/19 14:16:26;;;;;;;7.82;3.63;;;;;;;;;;5076212;28;20082;-76
2023/06/19 14:18:51;;;;;;;4.85;3.80;;;;;;;;;;5060844;28;20036;-76
2023/06/19 14:21:17;;;;;;;4.40;3.60;;;;;;;;;;5078655;28;20017;-76
2023/06/19 14:23:44;;;;;;;3.97;3.50;;;;;;;;;;5086856;28;20451;-76
2023/06/19 14:26:10;;;;;;;3.70;3.40;;;;;;;;;;5066331;28;20280;-76
2023/06/19 14:28:38;;;;;;;3.85;3.55;;;;;;;;;;5082554;28;20024;-76
2023/06/19 14:31:03;;;;;;;4.82;3.60;;;;;;;;;;5090047;28;20048;-75
2023/06/19 14:33:28;;;;;;;3.92;3.63;;;;;;;;;;5072137;28;20368;-75